x

Prince Edward Pt (45135) Wave Buoy

7:00am - Tue 21st Oct 2014 All times are CDT. -5 hours from GMT.

  • Sig Wave height 2.6ft
  • Peak Period 4s
  • Wind
    16mph, 18mph gusts
  • Sea Temp 58°f
  • Air Temp 52°f
  • Sea Pressure 1010.1mb
  • Prince Edward Pt
  • Prince Edward Pt

More Historic Weather Station data

Upgrade to MSW Pro to gain access to the past 30 days of data for over 8000 Wavebouys and Weather Stations around the globe.

Join Pro

Comparision Forecast

View Surf forecast
   
Tue 10/21 7:00am 2.5ft 4s 16 18 mph 1010.1mb 58f 52f
6:00am 2.5ft 4s 16 20 mph 1009.4mb 58f 53f
5:00am 2.5ft 4s 18 20 mph 1009mb 58f 53f
4:00am 2.5ft 4s 18 20 mph 1008.8mb 58f 54f
3:00am 2.5ft 4s 18 22 mph 1008.8mb 58f 54f
2:00am 2.5ft 4s 18 20 mph 1009.1mb 58f 54f
1:00am 2ft 3s 16 20 mph 1009.5mb 58f 53f
12:00am 2.5ft 4s 16 20 mph 1009.8mb 58f 54f
Mon 10/20 11:00pm 2.5ft 4s 18 22 mph 1010.1mb 57f 54f
10:00pm 2.5ft 4s 18 20 mph 1010.5mb 57f 55f
9:00pm 2.5ft 4s 20 22 mph 1010.3mb 58f 56f
8:00pm 2.5ft 4s 16 20 mph 1010.6mb 58f 56f
7:00pm 2.5ft 4s 16 18 mph 1010.7mb 58f 55f
6:00pm 3ft 4s 16 18 mph 1010.8mb 57f 55f
5:00pm 3ft 4s 18 20 mph 1010.5mb 57f 54f
4:00pm 2.5ft 4s 18 22 mph 1010.5mb 57f 54f
3:00pm 2.5ft 4s 18 20 mph 1010.6mb 57f 54f
2:00pm 2.5ft 4s 16 18 mph 1010.8mb 57f 54f
1:00pm 2.5ft 4s 16 20 mph 1011.2mb 57f 53f
12:00pm 2.5ft 4s 16 18 mph 1011.7mb 57f 52f
11:00am 3ft 4s 16 20 mph 1012.8mb 57f 51f
10:00am 3ft 4s 16 18 mph 1013.4mb 57f 51f
9:00am 3ft 4s 16 20 mph 1013.8mb 57f 51f
8:00am 2.5ft 4s 18 22 mph 1014mb 57f 50f
7:00am 2.5ft 4s 13 18 mph 1013.7mb 57f 50f
6:00am 2.5ft 5s 13 18 mph 1014mb 57f 50f
5:00am  -   -  13
mph
- - -
4:00am 2ft 5s 2 4 mph 1014.8mb 57f 50f
3:00am 2ft 5s 2 4 mph 1015.2mb 57f 49f
2:00am 1.6ft 5s 2 4 mph 1015.6mb 57f 48f
1:00am 1.6ft 5s  -  4 mph 1016.1mb 57f 47f
12:00am 2.5ft 5s 2 4 mph 1016.3mb 57f 47f
Sun 10/19 10:00pm 2.5ft 5s 9 11 mph 1016.7mb 57f 46f
9:00pm 3ft 5s 11 16 mph 1017mb 57f 46f
8:00pm 3ft 5s 13 18 mph 1017.2mb 57f 47f
7:00pm 3ft 5s 13 18 mph 1017.4mb 57f 46f
6:00pm 3ft 5s 13 18 mph 1017.5mb 57f 46f
5:00pm 2.5ft 5s 16 22 mph 1017.4mb 57f 46f
4:00pm 2.5ft 4s 18 22 mph 1017.5mb 57f 45f
3:00pm 2ft 4s 16 22 mph 1017.5mb 57f 44f
2:00pm 2ft 5s 11 16 mph 1017.8mb 57f 44f
1:00pm 2.5ft 4s 13 18 mph 1017.8mb 57f 43f
12:00pm  -   -  16
mph
- - 49f
11:00am 2.5ft 3s 18 22 mph 1018.3mb 57f 41f
10:00am 2.5ft 5s 18 25 mph 1018mb 57f 42f
9:00am 2.5ft 4s 20 27 mph 1017.8mb 57f 42f
8:00am 2.5ft 5s 20 27 mph 1017.5mb 57f 41f
7:00am 3.5ft 5s 20 27 mph 1016.9mb 57f 41f
6:00am 3.5ft 4s 22 27 mph 1016.2mb 57f 41f
4:00am 3.5ft 4s 25 31 mph 1014.6mb 57f 41f
2:00am 3.5ft 5s 18 27 mph 1013.2mb 57f 43f
1:00am 3.5ft 5s 18 22 mph 1012.6mb 58f 44f
12:00am 3.5ft 4s 20 27 mph 1011.9mb 58f 45f
Sat 10/18 11:00pm 3.5ft 4s 20 27 mph 1011.5mb 58f 46f
10:00pm 4ft 4s 22 27 mph 1010.9mb 58f 47f
9:00pm 4ft 6s 22 31 mph 1010.1mb 58f 48f
7:00pm 4ft 6s 22 27 mph 1008.7mb 58f 49f
6:00pm 4ft 6s 20 25 mph 1007.4mb 58f 51f
5:00pm 4ft 5s 25 31 mph 1006.1mb 58f 51f
4:00pm 3.5ft 6s 20 25 mph 1005mb 59f 53f
3:00pm 3.5ft 6s 18 22 mph 1004.2mb 59f 54f
2:00pm 4.5ft 6s 20 22 mph 1003.3mb 59f 54f
1:00pm 5ft 6s 20 22 mph 1002.4mb 59f 53f
12:00pm 5.5ft 6s 18 22 mph 1001.7mb 59f 54f
11:00am 5.5ft 6s 22 27 mph 1001.1mb 59f 55f
10:00am 5.5ft 6s 25 29 mph 1000.5mb 59f 55f
9:00am 5ft 6s 22 27 mph 1000mb 59f 56f
8:00am 5ft 6s 22 27 mph 999.6mb 59f 56f
7:00am 4.5ft 5s 27 31 mph 998.9mb 59f 57f
6:00am 3.5ft 5s 25 31 mph 998.3mb 59f 58f
5:00am 3ft 4s 22 27 mph 998.2mb 59f 58f
4:00am 3ft 4s 22 29 mph 998.1mb 59f 59f
3:00am 2.5ft 4s 20 25 mph 998.1mb 59f 59f
2:00am 2ft 4s 16 20 mph 998.2mb 59f 60f
1:00am 1.6ft 4s 13 18 mph 998.5mb 59f 61f
12:00am 2ft 3s 13 16 mph 998.9mb 59f 61f
Fri 10/17 11:00pm 2ft 4s 16 20 mph 998.8mb 59f 61f
10:00pm 1.6ft 4s 16 18 mph 999.2mb 59f 60f
9:00pm 1.3ft 4s 16 18 mph 999.2mb 59f 61f
8:00pm 1.3ft 4s 11 13 mph 999.5mb 59f 60f
7:00pm 1.3ft 4s 9 11 mph 999.8mb 59f 60f
6:00pm 1.6ft 4s 11 13 mph 1000.1mb 59f 61f
5:00pm 2ft 4s 9
mph
999.6mb 59f 60f
4:00pm 2.5ft 4s 11 13 mph 999.5mb 59f 60f
3:00pm 3ft 5s 11 13 mph 999.8mb 59f 60f
2:00pm 4ft 5s 16 18 mph 1000.1mb 59f 59f